Time;durP1;ratioP1;P1;durP2;ratioP2;P2;SDS_P1;SDS_P2;PMS_P1;PMS_P2;Temp;Humidity;BMP_temperature;BMP_pressure;BME280_temperature;BME280_humidity;BME280_pressure;Samples;Min_cycle;Max_cycle;Signal;HPM_P1;HPM_P2
2024/03/21 00:01:53;;;;;;;43.63;20.20;;;;;;;;;;5092511;28;20024;-75
2024/03/21 00:04:19;;;;;;;46.65;21.02;;;;;;;;;;5092358;28;20107;-75
2024/03/21 00:06:45;;;;;;;52.28;25.98;;;;;;;;;;5074537;28;20016;-77
2024/03/21 00:09:14;;;;;;;53.33;25.23;;;;;;;;;;5092073;28;20028;-76
2024/03/21 00:11:43;;;;;;;43.08;22.05;;;;;;;;;;5091792;28;20040;-76
2024/03/21 00:14:10;;;;;;;43.33;20.38;;;;;;;;;;5090853;28;20058;-76
2024/03/21 00:16:36;;;;;;;36.63;18.65;;;;;;;;;;5089879;28;20031;-76
2024/03/21 00:19:03;;;;;;;49.17;24.90;;;;;;;;;;5092620;28;20024;-76
2024/03/21 00:21:30;;;;;;;43.17;21.90;;;;;;;;;;5092761;28;20035;-75
2024/03/21 00:23:56;;;;;;;36.35;16.40;;;;;;;;;;5087773;28;20039;-75
2024/03/21 00:26:22;;;;;;;31.48;13.80;;;;;;;;;;5064097;28;20075;-76
2024/03/21 00:28:49;;;;;;;38.42;18.25;;;;;;;;;;5093170;28;20063;-75
2024/03/21 00:31:16;;;;;;;36.60;16.40;;;128.20;2252.80;;;;;;5089220;28;20576;-75
2024/03/21 00:33:47;;;;;;;32.63;14.57;;;128.10;2252.80;;;;;;5091255;28;20066;-76
2024/03/21 00:36:22;;;;;;;30.17;13.15;;;103.10;2227.20;;;;;;5092262;28;20535;-75
2024/03/21 00:38:48;;;;;;;24.77;12.23;;;103.20;2227.20;;;;;;5091304;28;20036;-75
2024/03/21 00:41:14;;;;;;;24.45;12.55;;;103.10;2227.20;;;;;;5092090;28;20030;-76
2024/03/21 00:43:40;;;;;;;54.25;19.67;;;103.00;2227.20;;;;;;5074711;28;20047;-74
2024/03/21 00:46:05;;;;;;;53.05;19.70;;;102.90;2227.20;;;;;;5092046;28;20097;-76
2024/03/21 00:48:31;;;;;;;43.10;17.55;;;102.80;2227.20;;;;;;5092468;28;20021;-75
2024/03/21 00:50:57;;;;;;;48.95;19.05;;;102.90;2227.20;;;;;;5092948;28;20024;-74
2024/03/21 00:53:23;;;;;;;52.65;21.42;;;102.90;2227.20;;;;;;5092337;28;20024;-74
2024/03/21 00:55:48;;;;;;;31.25;15.10;;;102.80;2227.20;;;;;;5088390;28;20024;-76
2024/03/21 00:58:17;;;;;;;32.15;15.88;;;102.90;2227.20;;;;;;5093484;28;20103;-76
2024/03/21 01:00:42;;;;;;;27.73;12.63;;;102.90;2227.20;;;;;;5096466;28;20049;-75
2024/03/21 01:03:12;;;;;;;23.77;12.10;;;103.00;2227.20;;;;;;5097722;28;20107;-76
2024/03/21 01:05:38;;;;;;;23.42;11.48;;;103.00;2227.20;;;;;;5096040;28;20150;-76
2024/03/21 01:08:09;;;;;;;20.55;10.85;;;103.10;2227.20;;;;;;5096373;28;20017;-74
2024/03/21 01:10:35;;;;;;;23.90;11.98;;;103.10;2227.20;;;;;;5097291;28;20075;-76
2024/03/21 01:13:02;;;;;;;27.15;12.98;;;103.20;2227.20;;;;;;5082364;28;20785;-75
2024/03/21 01:15:30;;;;;;;32.40;15.95;;;103.20;2227.20;;;;;;5075898;28;20040;-76
2024/03/21 01:18:03;;;;;;;54.25;25.00;;;103.20;2227.20;;;;;;5064365;28;20032;-75
2024/03/21 01:20:29;;;;;;;67.85;29.55;;;103.20;2227.20;;;;;;5056501;28;20379;-76
2024/03/21 01:22:55;;;;;;;59.28;26.25;;;103.20;2227.20;;;;;;5059238;28;20029;-76
2024/03/21 01:25:21;;;;;;;45.92;20.02;;;103.20;2227.20;;;;;;5044993;28;20500;-75
2024/03/21 01:27:46;;;;;;;41.10;18.70;;;103.20;2227.20;;;;;;5075899;28;20438;-75
2024/03/21 01:30:12;;;;;;;40.92;18.75;;;103.20;2227.20;;;;;;5076842;28;20410;-77
2024/03/21 01:32:38;;;;;;;41.95;19.90;;;103.20;2227.20;;;;;;5077061;28;20806;-75
2024/03/21 01:35:04;;;;;;;36.53;17.33;;;103.10;2227.20;;;;;;5076551;28;20394;-77
2024/03/21 01:37:30;;;;;;;34.00;17.17;;;103.10;2227.20;;;;;;5076858;28;20020;-76
2024/03/21 01:40:06;;;;;;;37.00;17.35;;;103.10;2227.20;;;;;;5075997;28;20028;-76
2024/03/21 01:42:32;;;;;;;31.27;15.48;;;103.00;2227.20;;;;;;5069238;28;20048;-76
2024/03/21 01:45:05;;;;;;;30.20;15.05;;;103.00;2227.20;;;;;;5076180;28;20017;-75
2024/03/21 01:47:31;;;;;;;37.47;16.90;;;103.00;2227.20;;;;;;5076233;28;20020;-74
2024/03/21 01:49:58;;;;;;;30.42;14.27;;;103.00;2227.20;;;;;;5076244;28;20049;-76
2024/03/21 01:52:25;;;;;;;33.00;16.52;;;103.00;2227.20;;;;;;5076510;28;20033;-76
2024/03/21 01:54:51;;;;;;;32.03;15.90;;;102.90;2227.20;;;;;;5076147;28;20115;-76
2024/03/21 01:57:17;;;;;;;33.25;16.48;;;102.90;2227.20;;;;;;5075294;28;20060;-76
2024/03/21 01:59:43;;;;;;;35.35;17.10;;;102.90;2227.20;;;;;;5075712;28;20356;-75
2024/03/21 02:02:09;;;;;;;34.35;18.02;;;102.90;2227.20;;;;;;5055562;28;20052;-75
2024/03/21 02:04:37;;;;;;;38.95;17.88;;;102.90;2227.20;;;;;;5075370;28;20020;-75
2024/03/21 02:07:04;;;;;;;36.20;17.52;;;102.90;2227.20;;;;;;5075462;28;20021;-76
2024/03/21 02:09:31;;;;;;;40.20;18.73;;;102.90;2227.20;;;;;;5076360;28;20471;-76
2024/03/21 02:12:06;;;;;;;37.17;16.30;;;102.80;2227.20;;;;;;5075817;28;20076;-75
2024/03/21 02:14:37;;;;;;;39.53;18.63;;;102.90;2227.20;;;;;;5075564;28;20449;-75
2024/03/21 02:17:03;;;;;;;36.13;17.27;;;102.80;2227.20;;;;;;5075153;28;20025;-75
2024/03/21 02:19:31;;;;;;;36.95;17.33;;;102.80;2227.20;;;;;;5072731;28;20490;-75
2024/03/21 02:24:42;;;;;;;40.00;18.67;;;102.80;2227.20;;;;;;5096601;28;20046;-76
2024/03/21 02:27:08;;;;;;;41.45;19.23;;;102.80;2227.20;;;;;;5096240;28;20020;-76
2024/03/21 02:29:34;;;;;;;46.33;20.45;;;102.70;2227.20;;;;;;5085469;28;20029;-75
2024/03/21 02:31:59;;;;;;;43.30;21.33;;;102.70;2227.20;;;;;;5075741;28;20046;-76
2024/03/21 02:34:25;;;;;;;36.88;18.55;;;102.70;2227.20;;;;;;5074944;28;20087;-76
2024/03/21 02:36:51;;;;;;;40.58;18.50;;;102.70;2227.20;;;;;;5075131;28;20116;-75
2024/03/21 02:39:17;;;;;;;46.28;21.35;;;102.70;2227.20;;;;;;5074965;28;20024;-76
2024/03/21 02:41:42;;;;;;;47.58;22.45;;;102.70;2227.20;;;;;;5074246;28;20076;-76
2024/03/21 02:44:08;;;;;;;46.38;20.75;;;102.70;2227.20;;;;;;5057491;28;20473;-76
2024/03/21 02:46:35;;;;;;;49.22;22.33;;;102.60;2227.20;;;;;;5075106;28;20124;-74
2024/03/21 02:49:01;;;;;;;49.60;22.95;;;102.60;2227.20;;;;;;5074863;28;20459;-74
2024/03/21 02:51:29;;;;;;;45.90;21.15;;;102.50;2227.20;;;;;;5074241;28;20020;-76
2024/03/21 02:53:56;;;;;;;52.95;24.35;;;102.40;2227.20;;;;;;5074875;28;20043;-75
2024/03/21 02:56:22;;;;;;;62.58;24.25;;;77.70;2227.20;;;;;;5075311;28;20074;-75
2024/03/21 02:58:48;;;;;;;56.15;24.45;;;77.70;2227.20;;;;;;5074416;28;20041;-77
2024/03/21 03:01:13;;;;;;;53.15;23.42;;;77.60;2227.20;;;;;;5074417;28;20021;-74
2024/03/21 03:03:39;;;;;;;55.45;23.60;;;77.60;2227.20;;;;;;5075033;28;20095;-75
2024/03/21 03:06:05;;;;;;;59.40;27.10;;;77.60;2227.20;;;;;;5075816;28;20184;-73
2024/03/21 03:08:30;;;;;;;62.58;28.17;;;77.60;2227.20;;;;;;5074494;28;20025;-74
2024/03/21 03:10:57;;;;;;;72.38;31.60;;;77.50;2227.20;;;;;;5074704;28;20020;-75
2024/03/21 03:13:23;;;;;;;74.18;33.13;;;77.60;2227.20;;;;;;5074049;28;20507;-74
2024/03/21 03:15:48;;;;;;;72.97;29.38;;;77.60;2227.20;;;;;;5077045;28;20039;-75
2024/03/21 03:18:14;;;;;;;62.70;28.95;;;77.70;2227.20;;;;;;5093566;28;20482;-74
2024/03/21 03:20:40;;;;;;;60.92;27.63;;;;;;;;;;5095027;28;20030;-76
2024/03/21 03:23:06;;;;;;;62.17;28.95;;;102.50;2227.20;;;;;;5085733;28;20059;-76
2024/03/21 03:25:32;;;;;;;64.25;28.80;;;102.40;2227.20;;;;;;5074622;28;20102;-75
2024/03/21 03:27:57;;;;;;;63.42;26.42;;;77.70;2227.20;;;;;;5072717;28;20379;-73
2024/03/21 03:30:23;;;;;;;58.58;25.58;;;77.60;2227.20;;;;;;5073768;28;20028;-75
2024/03/21 03:32:58;;;;;;;51.65;23.55;;;77.60;2227.20;;;;;;5073482;28;20032;-75
2024/03/21 03:35:44;;;;;;;54.67;23.65;;;77.60;2227.20;;;;;;5073250;28;20059;-75
2024/03/21 03:38:10;;;;;;;51.80;21.42;;;77.50;2227.20;;;;;;5073371;28;20020;-76
2024/03/21 03:40:35;;;;;;;47.90;21.23;;;77.40;2227.20;;;;;;5072336;28;20504;-75
2024/03/21 03:43:01;;;;;;;43.35;20.52;;;77.50;2227.20;;;;;;5068384;28;20025;-74
2024/03/21 03:45:27;;;;;;;48.90;21.85;;;77.50;2227.20;;;;;;5053150;28;20027;-74
2024/03/21 03:47:52;;;;;;;51.00;23.30;;;77.50;2227.20;;;;;;5053642;28;20100;-73
2024/03/21 03:50:19;;;;;;;47.30;21.42;;;77.50;2227.20;;;;;;5068966;28;20021;-76
2024/03/21 03:52:45;;;;;;;46.95;22.00;;;77.50;2227.20;;;;;;5073566;28;20064;-74
2024/03/21 03:55:11;;;;;;;50.42;23.20;;;77.50;2227.20;;;;;;5074076;28;20040;-76
2024/03/21 03:57:36;;;;;;;40.97;20.10;;;77.50;2227.20;;;;;;5071341;28;20435;-76
2024/03/21 04:00:04;;;;;;;38.20;16.85;;;77.50;2227.20;;;;;;5071766;28;20388;-75
2024/03/21 04:02:34;;;;;;;45.45;20.75;;;77.50;2227.20;;;;;;5073753;28;20032;-74
2024/03/21 04:04:59;;;;;;;37.08;17.13;;;77.50;2227.20;;;;;;5073164;28;20028;-75
2024/03/21 04:07:27;;;;;;;36.65;17.30;;;77.40;2227.20;;;;;;5073789;28;20053;-74
2024/03/21 04:09:54;;;;;;;36.83;18.17;;;77.40;2227.20;;;;;;5073015;28;20055;-75
2024/03/21 04:12:19;;;;;;;38.28;20.30;;;77.30;2227.20;;;;;;5082472;28;20095;-74
2024/03/21 04:14:48;;;;;;;41.08;20.10;;;77.30;2227.20;;;;;;5091422;28;20059;-73
2024/03/21 04:17:14;;;;;;;45.63;22.27;;;77.30;2227.20;;;;;;5090110;28;20020;-75
2024/03/21 04:19:40;;;;;;;47.13;23.83;;;77.20;2227.20;;;;;;5093906;28;20024;-75
2024/03/21 04:22:05;;;;;;;50.50;24.17;;;77.20;2227.20;;;;;;5094114;28;20028;-75
2024/03/21 04:24:31;;;;;;;45.75;22.65;;;77.20;2227.20;;;;;;5092590;28;20062;-74
2024/03/21 04:27:00;;;;;;;45.67;22.23;;;77.00;2227.20;;;;;;5093965;28;20069;-75
2024/03/21 04:29:26;;;;;;;38.78;19.45;;;77.20;2227.20;;;;;;5092164;28;20467;-75
2024/03/21 04:31:52;;;;;;;41.17;19.95;;;77.20;2227.20;;;;;;5092412;28;20136;-75
2024/03/21 04:34:17;;;;;;;37.08;19.85;;;77.20;2227.20;;;;;;5093354;28;20024;-75
2024/03/21 04:36:43;;;;;;;41.05;20.88;;;77.30;2227.20;;;;;;5093565;28;20032;-75
2024/03/21 04:39:11;;;;;;;39.58;20.35;;;77.30;2227.20;;;;;;5092764;28;20028;-75
2024/03/21 04:41:37;;;;;;;42.53;20.10;;;77.30;2227.20;;;;;;5090764;28;20466;-75
2024/03/21 04:44:03;;;;;;;39.45;19.40;;;77.30;2227.20;;;;;;5092401;28;20024;-74
2024/03/21 04:46:29;;;;;;;45.22;22.17;;;77.20;2227.20;;;;;;5092942;28;20028;-75
2024/03/21 04:48:57;;;;;;;43.17;20.77;;;77.20;2227.20;;;;;;5093581;28;20159;-73
2024/03/21 04:51:23;;;;;;;43.20;21.48;;;77.10;2227.20;;;;;;5093547;28;20032;-74
2024/03/21 04:53:49;;;;;;;48.28;23.17;;;77.10;2227.20;;;;;;5092968;28;20028;-74
2024/03/21 04:56:14;;;;;;;46.08;22.20;;;77.00;2227.20;;;;;;5092157;28;20490;-75
2024/03/21 04:58:40;;;;;;;49.67;23.45;;;77.10;2227.20;;;;;;5092575;28;20031;-75
2024/03/21 05:01:06;;;;;;;45.17;22.10;;;77.00;2227.20;;;;;;5089709;28;20032;-74
2024/03/21 05:03:32;;;;;;;42.30;20.85;;;77.00;2227.20;;;;;;5077189;28;20057;-76
2024/03/21 05:05:57;;;;;;;42.88;20.30;;;77.10;2227.20;;;;;;5076205;28;20490;-75
2024/03/21 05:08:23;;;;;;;38.60;18.70;;;77.00;2227.20;;;;;;5079561;28;20391;-74
2024/03/21 05:10:49;;;;;;;35.10;17.60;;;77.10;2227.20;;;;;;5079878;28;20065;-75
2024/03/21 05:13:15;;;;;;;33.83;16.83;;;77.10;2227.20;;;;;;5092267;28;20487;-76
2024/03/21 05:15:50;;;;;;;30.23;15.43;;;77.10;2227.20;;;;;;5092790;28;20113;-74
2024/03/21 05:18:20;;;;;;;33.47;15.55;;;77.10;2227.20;;;;;;5089457;28;20027;-75
2024/03/21 05:20:46;;;;;;;33.17;15.68;;;77.20;2227.20;;;;;;5092174;28;20070;-76
2024/03/21 05:23:11;;;;;;;37.67;16.85;;;77.30;2227.20;;;;;;5092891;28;20024;-74
2024/03/21 05:25:40;;;;;;;38.22;17.38;;;77.30;2227.20;;;;;;5092351;28;20111;-75
2024/03/21 05:28:09;;;;;;;37.13;18.00;;;77.40;2227.20;;;;;;5092879;28;20024;-75
2024/03/21 05:30:35;;;;;;;43.30;20.40;;;77.50;2227.20;;;;;;5092825;28;20020;-75
2024/03/21 05:33:03;;;;;;;43.90;22.98;;;77.60;2227.20;;;;;;5092466;28;20039;-74
2024/03/21 05:35:30;;;;;;;47.08;23.55;;;102.40;2227.20;;;;;;5092501;28;20087;-73
2024/03/21 05:37:55;;;;;;;51.15;24.52;;;102.50;2227.20;;;;;;5092102;28;20363;-74
2024/03/21 05:40:21;;;;;;;50.38;25.88;;;102.70;2227.20;;;;;;5092673;28;20051;-74
2024/03/21 05:42:48;;;;;;;53.33;27.60;;;102.90;2227.20;;;;;;5096651;28;20023;-75
2024/03/21 05:45:14;;;;;;;54.38;27.30;;;103.10;2227.20;;;;;;5095373;28;20024;-73
2024/03/21 05:47:40;;;;;;;67.15;32.53;;;103.30;2227.20;;;;;;5096249;28;20035;-75
2024/03/21 05:50:06;;;;;;;46.40;23.48;;;128.10;2252.80;;;;;;5096071;28;20152;-74
2024/03/21 05:52:32;;;;;;;33.35;16.75;;;128.10;2252.80;;;;;;5094380;28;20161;-73
2024/03/21 05:54:59;;;;;;;29.77;14.30;;;128.10;2252.80;;;;;;5093101;28;20035;-74
2024/03/21 05:57:25;;;;;;;32.20;15.50;;;128.00;2252.80;;;;;;5091542;28;20012;-75
2024/03/21 05:59:54;;;;;;;159.80;64.57;;;128.20;2252.80;;;;;;5091584;28;20016;-74
2024/03/21 06:02:20;;;;;;;40.50;21.63;;;128.50;2252.80;;;;;;5093346;28;20024;-75
2024/03/21 06:04:46;;;;;;;26.67;13.40;;;128.60;2252.80;;;;;;5095551;28;20058;-74
2024/03/21 06:07:12;;;;;;;25.88;12.65;;;128.50;2252.80;;;;;;5096105;28;20020;-74
2024/03/21 06:09:38;;;;;;;25.00;15.20;;;128.30;2252.80;;;;;;5082912;28;20031;-73
2024/03/21 06:12:06;;;;;;;23.83;13.95;;;;;;;;;;5083832;28;20047;-73
2024/03/21 06:14:33;;;;;;;22.58;13.15;;;;;;;;;;5094217;28;20478;-74
2024/03/21 06:16:59;;;;;;;23.88;14.00;;;282.10;2278.40;;;;;;5094396;28;20028;-75
2024/03/21 06:19:25;;;;;;;25.17;15.75;;;307.40;2150.40;;;;;;5094253;28;20077;-75
2024/03/21 06:21:51;;;;;;;26.38;14.82;;;333.60;1945.60;;;;;;5095868;28;20024;-75
2024/03/21 06:24:20;;;;;;;41.35;25.35;;;359.20;1843.20;;;;;;5096154;28;20028;-74
2024/03/21 06:26:46;;;;;;;97.28;47.17;;;384.60;1740.80;;;;;;5091078;28;20107;-73
2024/03/21 06:29:12;;;;;;;571.22;240.85;;;409.80;1715.20;;;;;;5075846;28;20064;-74
2024/03/21 06:31:38;;;;;;;442.85;153.30;;;410.10;1715.20;;;;;;5075075;28;20073;-74
2024/03/21 06:34:04;;;;;;;484.52;167.18;;;410.50;1638.40;;;;;;5086851;28;20056;-74
2024/03/21 06:36:29;;;;;;;269.50;122.93;;;460.80;1612.80;;;;;;5090815;28;20120;-74
2024/03/21 06:38:55;;;;;;;250.43;94.03;;;461.70;1510.40;;;;;;5088951;28;20475;-73
2024/03/21 06:41:21;;;;;;;162.15;59.58;;;486.60;1484.80;;;;;;5093330;28;20028;-74
2024/03/21 06:43:46;;;;;;;515.65;215.60;;;486.80;1484.80;;;;;;5093514;28;20085;-74
2024/03/21 06:46:12;;;;;;;163.07;70.82;;;486.60;1484.80;;;;;;5091494;28;20441;-74
2024/03/21 06:48:38;;;;;;;88.95;44.20;;;487.30;1382.40;;;;;;5092896;28;20080;-74
2024/03/21 06:51:08;;;;;;;70.75;37.03;;;537.90;1331.20;;;;;;5092332;28;20035;-74
2024/03/21 06:53:34;;;;;;;49.28;29.45;;;563.50;1254.40;;;;;;5090170;28;20020;-74
2024/03/21 06:56:00;;;;;;;39.95;26.48;;;588.90;1280.00;;;;;;5092013;28;20027;-74
2024/03/21 06:58:27;;;;;;;41.33;26.95;;;614.60;1177.60;;;;;;5091725;28;20043;-75
2024/03/21 07:00:53;;;;;;;44.63;26.85;;;589.60;1152.00;;;;;;5080986;28;20025;-75
2024/03/21 07:03:19;;;;;;;41.72;25.27;;;614.90;1152.00;;;;;;5088146;28;20466;-75
2024/03/21 07:05:47;;;;;;;36.17;23.67;;;615.20;1100.80;;;;;;5091264;28;20020;-74
2024/03/21 07:08:13;;;;;;;38.90;25.48;;;589.50;1126.40;;;;;;5080771;28;20067;-74
2024/03/21 07:10:39;;;;;;;40.95;25.70;;;563.70;1203.20;;;;;;5086268;28;20080;-75
2024/03/21 07:13:05;;;;;;;61.75;34.33;;;588.90;1177.60;;;;;;5073030;28;20048;-74
2024/03/21 07:15:30;;;;;;;44.53;27.52;;;614.60;1152.00;;;;;;5075684;28;20084;-75
2024/03/21 07:17:56;;;;;;;47.15;28.25;;;614.50;1126.40;;;;;;5071938;28;20096;-75
2024/03/21 07:20:22;;;;;;;47.85;28.52;;;588.80;1177.60;;;;;;5084071;28;20051;-74
2024/03/21 07:22:49;;;;;;;46.33;29.48;;;589.00;1177.60;;;;;;5068977;28;20036;-74
2024/03/21 07:25:15;;;;;;;45.67;28.83;;;588.80;1152.00;;;;;;5081835;28;20126;-75
2024/03/21 07:27:42;;;;;;;51.67;30.58;;;563.80;1177.60;;;;;;5084853;28;20055;-74
2024/03/21 07:30:11;;;;;;;73.38;32.17;;;538.00;1228.80;;;;;;5087976;28;20478;-75
2024/03/21 07:32:37;;;;;;;49.13;28.50;;;537.80;1254.40;;;;;;5090866;28;20027;-74
2024/03/21 07:35:04;;;;;;;49.67;27.67;;;538.00;1228.80;;;;;;5054921;28;20081;-75
2024/03/21 07:37:30;;;;;;;51.17;29.65;;;537.80;1228.80;;;;;;5082739;28;20047;-75
2024/03/21 07:39:55;;;;;;;46.83;26.80;;;537.60;1254.40;;;;;;5089893;28;20061;-75
2024/03/21 07:42:21;;;;;;;46.13;28.00;;;538.10;1228.80;;;;;;5072168;28;20021;-75
2024/03/21 07:44:47;;;;;;;46.33;27.83;;;487.20;1280.00;;;;;;5081362;28;20444;-75
2024/03/21 07:47:13;;;;;;;40.85;24.95;;;486.90;1305.60;;;;;;5089167;28;20066;-75
2024/03/21 07:49:39;;;;;;;43.13;25.35;;;461.50;1356.80;;;;;;5083270;28;20031;-75
2024/03/21 07:52:07;;;;;;;41.67;23.73;;;461.30;1356.80;;;;;;5080598;28;20103;-74
2024/03/21 07:54:33;;;;;;;36.20;23.05;;;460.90;1408.00;;;;;;5063375;28;20111;-74
2024/03/21 07:57:00;;;;;;;37.83;21.40;;;435.50;1408.00;;;;;;5075710;28;20032;-75
2024/03/21 07:59:25;;;;;;;39.33;23.40;;;460.80;1433.60;;;;;;5075424;28;20086;-75
2024/03/21 08:01:51;;;;;;;45.63;27.73;;;460.90;1433.60;;;;;;5076706;28;20024;-74
2024/03/21 08:04:17;;;;;;;47.47;28.55;;;461.00;1433.60;;;;;;5075783;28;20024;-75
2024/03/21 08:06:45;;;;;;;42.00;26.98;;;461.30;1408.00;;;;;;5078889;28;20017;-75
2024/03/21 08:09:11;;;;;;;44.45;27.58;;;461.70;1408.00;;;;;;5083286;28;20039;-75
2024/03/21 08:11:36;;;;;;;42.00;25.08;;;461.40;1433.60;;;;;;5073683;28;20028;-75
2024/03/21 08:14:02;;;;;;;38.88;23.48;;;460.80;1459.20;;;;;;5073775;28;20028;-75
2024/03/21 08:16:28;;;;;;;39.88;25.13;;;461.00;1459.20;;;;;;5078620;28;20024;-75
2024/03/21 08:18:54;;;;;;;39.95;23.70;;;435.60;1459.20;;;;;;5089605;28;20196;-75
2024/03/21 08:21:21;;;;;;;32.95;20.80;;;435.50;1484.80;;;;;;5089389;28;20103;-75
2024/03/21 08:23:47;;;;;;;33.70;20.05;;;461.20;1484.80;;;;;;5080251;28;20032;-75
2024/03/21 08:26:13;;;;;;;36.38;19.77;;;461.70;1408.00;;;;;;5080015;28;20017;-74
2024/03/21 08:28:39;;;;;;;30.75;18.95;;;486.80;1356.80;;;;;;5073615;28;20352;-74
2024/03/21 08:31:05;;;;;;;34.15;19.40;;;487.20;1305.60;;;;;;5082889;28;20028;-75
2024/03/21 08:33:31;;;;;;;34.45;19.17;;;487.00;1280.00;;;;;;5086260;28;20024;-76
2024/03/21 08:35:56;;;;;;;28.77;18.58;;;512.00;1280.00;;;;;;5085288;28;20036;-75
2024/03/21 08:38:25;;;;;;;28.33;16.42;;;486.70;1305.60;;;;;;5084918;28;20367;-75
2024/03/21 08:40:54;;;;;;;26.30;16.00;;;487.10;1280.00;;;;;;5084136;28;20021;-76
2024/03/21 08:43:21;;;;;;;24.17;15.13;;;512.30;1254.40;;;;;;5093668;28;20032;-76
2024/03/21 08:45:48;;;;;;;22.52;13.32;;;512.60;1254.40;;;;;;5080371;28;20379;-75
2024/03/21 08:48:15;;;;;;;18.13;12.32;;;512.90;1203.20;;;;;;5068777;28;20035;-75
2024/03/21 08:50:44;;;;;;;15.38;9.00;;;512.80;1177.60;;;;;;5068501;28;20546;-75
2024/03/21 08:53:10;;;;;;;14.02;8.27;;;512.50;1177.60;;;;;;5071057;28;20020;-75
2024/03/21 08:55:36;;;;;;;17.65;9.02;;;537.60;1177.60;;;;;;5075005;28;20036;-75
2024/03/21 08:58:04;;;;;;;16.45;8.63;;;512.90;1152.00;;;;;;5070664;28;20025;-75
2024/03/21 09:00:32;;;;;;;15.25;8.88;;;537.90;1177.60;;;;;;5071641;28;20028;-75
2024/03/21 09:03:01;;;;;;;13.38;8.45;;;537.90;1152.00;;;;;;5090782;28;20531;-75
2024/03/21 09:05:27;;;;;;;13.48;8.50;;;537.90;1152.00;;;;;;5091258;28;20024;-75
2024/03/21 09:07:54;;;;;;;14.43;8.20;;;538.00;1152.00;;;;;;5090385;28;20020;-74
2024/03/21 09:10:20;;;;;;;14.43;8.68;;;538.40;1152.00;;;;;;5091415;28;20055;-75
2024/03/21 09:12:45;;;;;;;18.60;12.00;;;563.20;1152.00;;;;;;5081354;28;20483;-75
2024/03/21 09:15:17;;;;;;;14.25;8.38;;;563.30;1152.00;;;;;;5091117;28;20068;-75
2024/03/21 09:17:42;;;;;;;13.65;8.63;;;563.40;1126.40;;;;;;5090599;28;20016;-75
2024/03/21 09:20:09;;;;;;;13.40;8.45;;;563.40;1100.80;;;;;;5074266;28;20020;-75
2024/03/21 09:22:38;;;;;;;11.75;7.80;;;538.50;1100.80;;;;;;5074859;28;20032;-76
2024/03/21 09:25:04;;;;;;;12.27;8.15;;;563.40;1100.80;;;;;;5075075;28;20031;-76
2024/03/21 09:27:30;;;;;;;14.88;8.18;;;563.70;1100.80;;;;;;5074498;28;20012;-75
2024/03/21 09:29:59;;;;;;;11.13;6.97;;;563.70;1100.80;;;;;;5074835;28;20175;-76
2024/03/21 09:32:25;;;;;;;9.93;6.40;;;564.00;1049.60;;;;;;5076584;28;20025;-75
2024/03/21 09:34:51;;;;;;;9.60;6.30;;;564.00;1024.00;;;;;;5076482;28;20111;-77
2024/03/21 09:37:18;;;;;;;12.15;6.70;;;589.00;1024.00;;;;;;5040850;28;20052;-77
2024/03/21 09:39:44;;;;;;;9.90;6.70;;;589.10;972.80;;;;;;5076015;28;20070;-75
2024/03/21 09:42:16;;;;;;;9.70;6.20;;;589.20;998.40;;;;;;5076032;28;20024;-76
2024/03/21 09:44:48;;;;;;;10.85;6.60;;;;;;;;;;5058516;28;20029;-77
2024/03/21 09:47:16;;;;;;;11.10;7.07;;;589.70;1049.60;;;;;;5076029;28;20056;-76
2024/03/21 09:49:43;;;;;;;10.07;6.32;;;614.40;998.40;;;;;;5076135;28;20395;-76
2024/03/21 09:52:10;;;;;;;9.88;6.10;;;589.40;972.80;;;;;;5075681;28;20024;-74
2024/03/21 09:54:36;;;;;;;9.88;6.38;;;564.10;998.40;;;;;;5071754;28;20039;-77
2024/03/21 09:57:05;;;;;;;10.32;6.72;;;588.90;998.40;;;;;;5076254;28;20017;-77
2024/03/21 09:59:30;;;;;;;11.77;7.53;;;563.90;972.80;;;;;;5058353;28;20055;-77
2024/03/21 10:01:56;;;;;;;9.30;6.10;;;564.00;1024.00;;;;;;5076445;28;20479;-76
2024/03/21 10:04:23;;;;;;;11.15;6.50;;;564.10;998.40;;;;;;5076265;28;20021;-76
2024/03/21 10:06:49;;;;;;;11.32;6.30;;;563.70;972.80;;;;;;5076212;28;20017;-78
2024/03/21 10:09:15;;;;;;;12.18;6.35;;;589.20;972.80;;;;;;5076430;28;20742;-76
2024/03/21 10:11:41;;;;;;;10.07;6.05;;;589.20;972.80;;;;;;5076957;28;20032;-77
2024/03/21 10:14:16;;;;;;;10.10;5.95;;;563.90;998.40;;;;;;5095984;28;20449;-77
2024/03/21 10:16:45;;;;;;;;;;;564.10;998.40;;;;;;5096474;28;20067;-75
2024/03/21 10:19:12;;;;;;;12.32;6.53;;;588.80;998.40;;;;;;5096444;28;19908;-77
2024/03/21 10:21:38;;;;;;;9.40;6.15;;;563.90;972.80;;;;;;5095345;28;20036;-77
2024/03/21 10:24:05;;;;;;;9.15;5.90;;;563.60;998.40;;;;;;5092590;28;20031;-76
2024/03/21 10:26:32;;;;;;;9.00;5.50;;;564.00;998.40;;;;;;5088984;28;20031;-77
2024/03/21 10:28:58;;;;;;;11.00;6.10;;;564.10;998.40;;;;;;5092562;28;20012;-76
2024/03/21 10:31:24;;;;;;;8.57;6.00;;;564.00;998.40;;;;;;5092292;28;20055;-76
2024/03/21 10:33:55;;;;;;;9.85;6.15;;;563.70;998.40;;;;;;5093579;28;20036;-76
2024/03/21 10:36:21;;;;;;;8.98;5.45;;;563.60;1024.00;;;;;;5094113;28;20027;-76
2024/03/21 10:38:48;;;;;;;12.45;6.40;;;563.20;1024.00;;;;;;5092577;28;20028;-76
2024/03/21 10:41:24;;;;;;;10.20;6.10;;;538.50;1024.00;;;;;;5093673;28;20020;-76
2024/03/21 10:43:57;;;;;;;10.10;5.88;;;563.30;1049.60;;;;;;5074671;28;20027;-75
2024/03/21 10:46:29;;;;;;;9.13;5.60;;;563.70;1024.00;;;;;;5089756;28;20041;-76
2024/03/21 10:48:57;;;;;;;8.95;6.07;;;563.50;1024.00;;;;;;5091291;28;20024;-76
2024/03/21 10:51:23;;;;;;;10.13;5.65;;;563.50;1049.60;;;;;;5092819;28;20024;-76
2024/03/21 10:53:56;;;;;;;9.40;5.80;;;564.00;1049.60;;;;;;5093225;28;20233;-76
2024/03/21 10:56:25;;;;;;;8.57;5.57;;;564.00;1024.00;;;;;;5089480;28;20439;-76
2024/03/21 10:58:56;;;;;;;11.30;5.60;;;564.00;1024.00;;;;;;5089312;28;20028;-75
2024/03/21 11:01:35;;;;;;;8.45;5.40;;;589.10;998.40;;;;;;5084530;28;20114;-75
2024/03/21 11:04:16;;;;;;;9.02;5.68;;;589.50;998.40;;;;;;5075900;28;20086;-75
2024/03/21 11:06:47;;;;;;;8.75;5.70;;;589.30;1024.00;;;;;;5089415;28;20020;-74
2024/03/21 11:09:15;;;;;;;9.02;6.05;;;589.40;1024.00;;;;;;5088670;28;20040;-75
2024/03/21 11:11:41;;;;;;;10.77;6.25;;;589.20;1024.00;;;;;;5082118;28;20049;-75
2024/03/21 11:14:09;;;;;;;9.90;6.18;;;589.00;1024.00;;;;;;5071105;28;20090;-75
2024/03/21 11:16:37;;;;;;;8.35;5.82;;;589.20;1024.00;;;;;;5070654;28;20032;-75
2024/03/21 11:19:04;;;;;;;9.38;5.82;;;589.50;1024.00;;;;;;5071581;28;20033;-75
2024/03/21 11:21:29;;;;;;;9.80;6.07;;;589.60;1024.00;;;;;;5070622;28;20479;-75
2024/03/21 11:23:55;;;;;;;11.30;7.30;;;614.40;1024.00;;;;;;5067248;28;20068;-75
2024/03/21 11:26:21;;;;;;;12.95;7.43;;;614.50;998.40;;;;;;5074672;28;20475;-75
2024/03/21 11:28:50;;;;;;;9.55;5.60;;;589.60;1024.00;;;;;;5067149;28;20036;-76
2024/03/21 11:31:22;;;;;;;9.48;5.78;;;614.40;1024.00;;;;;;5066842;28;20049;-75
2024/03/21 11:33:49;;;;;;;10.52;6.10;;;589.60;1024.00;;;;;;5067683;28;20043;-76
2024/03/21 11:36:19;;;;;;;9.07;5.82;;;589.60;998.40;;;;;;5073088;28;20009;-75
2024/03/21 11:38:47;;;;;;;9.15;5.60;;;614.40;998.40;;;;;;5082983;28;20039;-73
2024/03/21 11:41:30;;;;;;;8.80;6.03;;;614.90;972.80;;;;;;5081883;28;20101;-75
2024/03/21 11:43:58;;;;;;;8.80;5.80;;;615.00;972.80;;;;;;5069072;28;20088;-77
2024/03/21 11:46:27;;;;;;;11.13;6.25;;;615.00;972.80;;;;;;5067003;28;20040;-76
2024/03/21 11:49:10;;;;;;;9.10;5.65;;;615.30;947.20;;;;;;5086863;28;20084;-76
2024/03/21 11:51:37;;;;;;;9.88;5.63;;;614.80;972.80;;;;;;5083756;28;20086;-76
2024/03/21 11:54:08;;;;;;;9.50;5.80;;;614.70;972.80;;;;;;5075038;28;20048;-76
2024/03/21 11:56:37;;;;;;;7.97;5.32;;;614.60;972.80;;;;;;5072899;28;20133;-77
2024/03/21 11:59:03;;;;;;;9.55;6.30;;;615.00;972.80;;;;;;5076570;28;20437;-77
2024/03/21 12:01:29;;;;;;;11.10;6.10;;;615.00;972.80;;;;;;5077978;28;20033;-77
2024/03/21 12:03:55;;;;;;;8.70;6.00;;;615.30;972.80;;;;;;5084841;28;20039;-77
2024/03/21 12:06:21;;;;;;;9.38;6.15;;;640.30;972.80;;;;;;5083494;28;20054;-75
2024/03/21 12:08:49;;;;;;;9.60;6.20;;;640.50;972.80;;;;;;5077120;28;20144;-76
2024/03/21 12:11:16;;;;;;;9.73;6.45;;;640.50;947.20;;;;;;5077068;28;20020;-75
2024/03/21 12:13:43;;;;;;;8.63;6.10;;;640.60;947.20;;;;;;5066198;28;20028;-76
2024/03/21 12:16:15;;;;;;;9.55;6.00;;;640.70;947.20;;;;;;5074096;28;20020;-76